createdAt,value
2022-10-10T00:01:21.270Z,13.70
2022-10-10T00:03:48.478Z,13.70
2022-10-10T00:06:16.728Z,13.60
2022-10-10T00:08:44.849Z,13.60
2022-10-10T00:11:13.522Z,13.60
2022-10-10T00:13:41.162Z,13.60
2022-10-10T00:16:08.549Z,13.60
2022-10-10T00:18:35.773Z,13.50
2022-10-10T00:21:03.108Z,13.50
2022-10-10T00:23:30.084Z,13.50
2022-10-10T00:25:57.295Z,13.50
2022-10-10T00:28:24.373Z,13.50
2022-10-10T00:30:51.284Z,13.40
2022-10-10T00:33:18.428Z,13.40
2022-10-10T00:35:45.553Z,13.40
2022-10-10T00:38:13.675Z,13.40
2022-10-10T00:40:57.191Z,13.30
2022-10-10T00:43:27.363Z,13.30
2022-10-10T00:45:54.496Z,13.30
2022-10-10T00:48:35.279Z,13.30
2022-10-10T00:51:04.467Z,13.30
2022-10-10T00:53:36.269Z,13.20
2022-10-10T00:56:04.304Z,13.20
2022-10-10T00:58:32.504Z,13.20
2022-10-10T01:00:59.961Z,13.10
2022-10-10T01:03:26.846Z,13.10
2022-10-10T01:05:53.865Z,13.10
2022-10-10T01:08:21.552Z,13.10
2022-10-10T01:11:06.850Z,13.10
2022-10-10T01:14:16.122Z,13.10
2022-10-10T01:17:05.554Z,13.10
2022-10-10T01:20:10.921Z,13.00
2022-10-10T01:23:06.685Z,13.00
2022-10-10T01:26:08.415Z,13.00
2022-10-10T01:28:37.956Z,13.00
2022-10-10T01:31:08.573Z,13.00
2022-10-10T01:34:11.661Z,13.00
2022-10-10T01:36:50.377Z,12.90
2022-10-10T01:39:22.816Z,12.90
2022-10-10T01:42:01.445Z,13.00
2022-10-10T01:44:28.392Z,12.90
2022-10-10T01:46:55.274Z,12.80
2022-10-10T01:49:28.421Z,12.80
2022-10-10T01:51:55.473Z,12.80
2022-10-10T01:54:37.659Z,12.80
2022-10-10T01:57:15.904Z,12.80
2022-10-10T02:00:09.215Z,12.90
2022-10-10T02:03:09.418Z,12.70
2022-10-10T02:05:53.692Z,12.70
2022-10-10T02:08:31.863Z,12.70
2022-10-10T02:11:02.729Z,12.70
2022-10-10T02:13:44.335Z,12.70
2022-10-10T02:16:19.509Z,12.70
2022-10-10T02:18:48.859Z,12.60
2022-10-10T02:21:16.925Z,12.60
2022-10-10T02:23:47.495Z,12.60
2022-10-10T02:26:17.842Z,12.60
2022-10-10T02:28:55.075Z,12.50
2022-10-10T02:31:31.321Z,12.50
2022-10-10T02:34:23.211Z,12.50
2022-10-10T02:37:03.650Z,12.50
2022-10-10T02:39:35.302Z,12.50
2022-10-10T02:42:04.886Z,12.50
2022-10-10T02:44:32.860Z,12.50
2022-10-10T02:46:59.810Z,12.50
2022-10-10T02:49:33.098Z,12.60
2022-10-10T02:52:00.504Z,12.50
2022-10-10T02:54:27.613Z,12.60
2022-10-10T02:56:54.841Z,12.50
2022-10-10T02:59:21.794Z,12.50
2022-10-10T03:01:48.678Z,12.50
2022-10-10T03:04:15.616Z,12.50
2022-10-10T03:06:42.552Z,12.50
2022-10-10T03:11:36.953Z,12.50
2022-10-10T03:14:03.849Z,12.50
2022-10-10T03:16:30.787Z,12.50
2022-10-10T03:18:57.765Z,12.50
2022-10-10T09:11:00.630Z,14.70
2022-10-10T09:13:35.909Z,14.70
2022-10-10T09:16:21.277Z,14.70
2022-10-10T09:19:24.430Z,14.70
2022-10-10T09:21:57.422Z,14.80
2022-10-10T09:24:32.464Z,14.80
2022-10-10T09:27:09.771Z,14.90
2022-10-10T09:29:49.544Z,15.00
2022-10-10T09:32:22.645Z,15.00
2022-10-10T09:35:00.383Z,15.10
2022-10-10T09:37:46.819Z,15.10
2022-10-10T09:40:20.176Z,15.20
2022-10-10T09:42:47.306Z,15.20
2022-10-10T09:45:20.792Z,15.40
2022-10-10T09:47:51.417Z,15.60
2022-10-10T09:50:18.417Z,15.80
2022-10-10T09:52:47.128Z,16.00
2022-10-10T09:55:37.167Z,16.20
2022-10-10T09:58:27.191Z,16.20
2022-10-10T10:00:54.380Z,16.20
2022-10-10T10:03:22.720Z,16.20
2022-10-10T10:06:00.149Z,16.30
2022-10-10T10:08:30.601Z,16.40
2022-10-10T10:10:58.730Z,16.50
2022-10-10T10:13:32.095Z,16.60
2022-10-10T10:16:10.453Z,16.60
2022-10-10T10:18:46.461Z,16.70
2022-10-10T10:21:23.676Z,16.70
2022-10-10T10:24:18.613Z,16.80
2022-10-10T10:26:47.587Z,16.80
2022-10-10T10:29:34.250Z,16.90
2022-10-10T10:32:09.091Z,16.90
2022-10-10T10:34:59.272Z,16.90
2022-10-10T10:37:35.416Z,17.00
2022-10-10T10:40:46.974Z,17.20
2022-10-10T10:43:51.481Z,17.40
2022-10-10T10:46:39.966Z,17.40
2022-10-10T10:49:37.166Z,17.40
2022-10-10T10:52:41.674Z,17.40
2022-10-10T10:55:41.591Z,17.30
2022-10-10T11:01:38.967Z,17.10
2022-10-10T11:05:18.389Z,17.10
2022-10-10T11:07:24.559Z,17.00
2022-10-10T11:10:00.540Z,16.90
2022-10-10T11:13:04.573Z,16.90
2022-10-10T11:16:05.904Z,16.90
2022-10-10T11:18:47.562Z,16.90
2022-10-10T11:21:31.593Z,16.90
2022-10-10T11:24:06.491Z,16.90
2022-10-10T11:26:40.953Z,16.90
2022-10-10T11:29:22.650Z,16.90
2022-10-10T11:32:16.850Z,17.00
2022-10-10T11:35:01.989Z,16.90
2022-10-10T11:37:31.129Z,17.00
2022-10-10T11:40:03.420Z,16.90
2022-10-10T11:42:36.306Z,17.00
2022-10-10T11:45:05.766Z,16.90
2022-10-10T11:47:37.911Z,16.90
2022-10-10T11:50:21.862Z,17.00
2022-10-10T11:53:16.286Z,17.00
2022-10-10T11:56:04.234Z,17.00
2022-10-10T11:58:41.326Z,17.00
2022-10-10T12:01:33.608Z,17.00
2022-10-10T12:04:00.559Z,16.90
2022-10-10T12:06:41.225Z,16.90
2022-10-10T12:09:21.364Z,16.80
2022-10-10T12:11:57.728Z,16.80
2022-10-10T12:14:28.021Z,16.80
2022-10-10T12:19:28.359Z,16.80
2022-10-10T12:22:05.541Z,16.70
2022-10-10T14:08:20.144Z,15.90
2022-10-10T14:11:06.967Z,15.90
2022-10-10T14:13:37.111Z,15.90
2022-10-10T14:16:21.706Z,15.90
2022-10-10T14:18:48.768Z,15.90
2022-10-10T14:21:15.570Z,15.90
2022-10-10T14:23:42.535Z,15.90
2022-10-10T14:26:15.936Z,15.90
2022-10-10T14:28:43.743Z,15.80
2022-10-10T14:31:11.171Z,15.90
2022-10-10T14:33:38.335Z,15.90
2022-10-10T14:36:05.829Z,15.90
2022-10-10T14:38:32.925Z,15.90
2022-10-10T14:41:00.893Z,16.00
2022-10-10T14:43:28.397Z,16.00
2022-10-10T14:45:55.566Z,16.00
2022-10-10T14:48:22.990Z,16.00
2022-10-10T14:50:51.339Z,16.00
2022-10-10T14:53:18.659Z,16.00
2022-10-10T14:55:46.367Z,16.00
2022-10-10T14:58:22.897Z,16.10
2022-10-10T15:00:51.883Z,16.00
2022-10-10T15:03:18.836Z,16.10
2022-10-10T15:05:46.186Z,16.00
2022-10-10T15:08:14.693Z,16.00
2022-10-10T15:10:42.455Z,16.00
2022-10-10T15:13:13.614Z,16.10
2022-10-10T15:15:40.619Z,16.10
2022-10-10T15:18:25.687Z,16.20
2022-10-10T15:20:55.069Z,16.10
2022-10-10T15:23:21.908Z,16.10
2022-10-10T15:25:48.783Z,16.00
2022-10-10T15:28:15.865Z,16.00
2022-10-10T15:30:45.847Z,15.90
2022-10-10T15:33:12.765Z,15.90
2022-10-10T15:36:03.851Z,15.80
2022-10-10T15:38:27.523Z,15.80
2022-10-10T15:40:59.212Z,15.70
2022-10-10T15:43:27.771Z,15.60
2022-10-10T15:45:56.493Z,15.60
2022-10-10T15:48:23.534Z,15.50
2022-10-10T15:50:51.388Z,15.50
2022-10-10T15:53:18.811Z,15.40
2022-10-10T15:55:47.198Z,15.30
2022-10-10T15:58:15.542Z,15.30
2022-10-10T16:00:43.963Z,15.30
2022-10-10T16:03:11.291Z,15.20
2022-10-10T16:05:39.795Z,15.10
2022-10-10T16:08:12.023Z,15.10
2022-10-10T16:10:40.744Z,15.10
2022-10-10T16:13:08.191Z,15.00
2022-10-10T16:15:35.363Z,15.00
2022-10-10T16:18:02.842Z,14.90
2022-10-10T16:20:29.755Z,14.90
2022-10-10T16:22:56.622Z,14.80
2022-10-10T16:25:23.637Z,14.70
2022-10-10T16:27:50.510Z,14.70
2022-10-10T16:30:17.507Z,14.70
2022-10-10T16:32:44.480Z,14.60
2022-10-10T16:35:11.757Z,14.50
2022-10-10T16:37:39.423Z,14.50
2022-10-10T16:40:07.386Z,14.50
2022-10-10T16:42:34.533Z,14.40
2022-10-10T16:45:01.512Z,14.40
2022-10-10T16:47:28.386Z,14.30
2022-10-10T16:49:55.282Z,14.30
2022-10-10T16:52:22.121Z,14.30
2022-10-10T16:54:52.183Z,14.20
2022-10-10T16:57:19.727Z,14.20
2022-10-10T16:59:46.685Z,14.20
2022-10-10T17:02:13.909Z,14.10
2022-10-10T17:04:40.759Z,14.00
2022-10-10T17:07:08.745Z,14.00
2022-10-10T17:09:35.632Z,14.00
2022-10-10T17:12:02.594Z,13.90
2022-10-10T17:14:29.392Z,13.90
2022-10-10T17:17:13.190Z,13.80
2022-10-10T17:19:40.860Z,13.80
2022-10-10T17:22:07.906Z,13.70
2022-10-10T17:24:35.623Z,13.70
2022-10-10T17:27:02.552Z,13.60
2022-10-10T17:29:29.548Z,13.60
2022-10-10T17:31:56.465Z,13.60
2022-10-10T17:34:23.362Z,13.50
2022-10-10T17:36:50.320Z,13.50
2022-10-10T17:39:17.244Z,13.40
2022-10-10T17:41:45.986Z,13.40
2022-10-10T17:44:13.518Z,13.40
2022-10-10T17:46:40.900Z,13.30
2022-10-10T17:49:10.584Z,13.30
2022-10-10T17:51:43.301Z,13.20
2022-10-10T17:54:10.602Z,13.20
2022-10-10T17:56:37.641Z,13.20
2022-10-10T17:59:06.793Z,13.10
2022-10-10T18:01:35.471Z,13.10
2022-10-10T18:04:02.883Z,13.10
2022-10-10T18:06:30.901Z,13.00
2022-10-10T18:08:58.392Z,13.00
2022-10-10T18:11:28.456Z,12.90
2022-10-10T18:14:00.483Z,12.90
2022-10-10T18:16:32.299Z,12.90
2022-10-10T18:18:59.639Z,12.90
2022-10-10T18:21:27.382Z,12.90
2022-10-10T18:23:54.322Z,12.80
2022-10-10T18:26:23.756Z,12.80
2022-10-10T18:28:54.929Z,12.80
2022-10-10T18:31:34.096Z,12.80
2022-10-10T18:34:01.852Z,12.80
2022-10-10T18:36:31.409Z,12.70
2022-10-10T18:39:00.081Z,12.70
2022-10-10T18:41:36.591Z,12.70
2022-10-10T18:44:10.427Z,12.70
2022-10-10T18:46:37.777Z,12.70
2022-10-10T18:49:06.251Z,12.60
2022-10-10T18:51:33.421Z,12.50
2022-10-10T18:54:03.923Z,12.50
2022-10-10T18:56:32.566Z,12.50
2022-10-10T18:59:01.745Z,12.50
2022-10-10T19:01:30.939Z,12.50
2022-10-10T19:03:58.095Z,12.40
2022-10-10T19:06:26.131Z,12.40
2022-10-10T19:08:54.983Z,12.40
2022-10-10T19:11:24.733Z,12.40
2022-10-10T19:13:52.068Z,12.40
2022-10-10T19:16:19.546Z,12.40
2022-10-10T19:18:46.703Z,12.30
2022-10-10T19:21:15.096Z,12.30
2022-10-10T19:23:43.049Z,12.30
2022-10-10T19:26:12.899Z,12.30
2022-10-10T19:28:40.419Z,12.30
2022-10-10T19:31:13.028Z,12.30
2022-10-10T19:33:40.521Z,12.30
2022-10-10T19:36:09.504Z,12.30
2022-10-10T19:38:41.099Z,12.30
2022-10-10T19:41:10.373Z,12.20
2022-10-10T19:43:37.284Z,12.20
2022-10-10T19:46:06.690Z,12.10
2022-10-10T19:48:43.497Z,12.10
2022-10-10T19:51:13.739Z,12.10
2022-10-10T19:53:41.829Z,12.10
2022-10-10T19:56:20.742Z,12.10
2022-10-10T19:58:47.722Z,12.10
2022-10-10T20:01:16.923Z,12.10
2022-10-10T20:03:45.546Z,12.10
2022-10-10T20:06:12.495Z,12.00
2022-10-10T20:08:39.649Z,12.00
2022-10-10T20:11:06.898Z,12.00
2022-10-10T20:13:34.751Z,11.90
2022-10-10T20:16:04.083Z,11.90
2022-10-10T20:18:34.024Z,11.90
2022-10-10T20:21:06.410Z,11.90
2022-10-10T20:23:33.732Z,11.90
2022-10-10T20:26:00.963Z,11.90
2022-10-10T20:28:28.232Z,11.90
2022-10-10T20:30:55.197Z,11.90
2022-10-10T20:33:22.210Z,11.90
2022-10-10T20:35:53.662Z,11.90
2022-10-10T20:38:23.025Z,11.90
2022-10-10T20:40:49.923Z,11.90
2022-10-10T20:43:16.765Z,11.80
2022-10-10T20:45:43.565Z,11.80
2022-10-10T20:48:10.590Z,11.70
2022-10-10T20:50:38.869Z,11.80
2022-10-10T20:53:06.735Z,11.70
2022-10-10T20:55:34.193Z,11.70
2022-10-10T20:58:01.126Z,11.70
2022-10-10T21:00:28.238Z,11.70
2022-10-10T21:02:56.418Z,11.70
2022-10-10T21:05:23.773Z,11.60
2022-10-10T21:07:50.931Z,11.50
2022-10-10T21:10:18.002Z,11.60
2022-10-10T21:12:44.827Z,11.50
2022-10-10T21:15:11.667Z,11.50
2022-10-10T21:17:39.062Z,11.40
2022-10-10T21:20:06.421Z,11.40
2022-10-10T21:22:33.356Z,11.40
2022-10-10T21:25:00.472Z,11.40
2022-10-10T21:27:27.371Z,11.30
2022-10-10T21:29:54.276Z,11.40
2022-10-10T21:32:21.291Z,11.30
2022-10-10T21:34:55.616Z,11.30
2022-10-10T21:37:23.434Z,11.30
2022-10-10T21:39:50.229Z,11.30
2022-10-10T21:42:17.287Z,11.20
2022-10-10T21:44:44.200Z,11.20
2022-10-10T21:47:11.089Z,11.20
2022-10-10T21:49:37.956Z,11.10
2022-10-10T21:54:32.435Z,11.10
2022-10-10T21:56:59.328Z,11.10
2022-10-10T21:59:30.198Z,11.10
2022-10-10T22:04:28.695Z,11.10
2022-10-10T22:06:56.236Z,11.10
2022-10-10T22:11:50.457Z,11.00
2022-10-10T22:14:17.517Z,11.00
2022-10-10T22:16:44.661Z,10.90
2022-10-10T22:19:11.439Z,11.00
2022-10-10T22:24:08.322Z,10.90
2022-10-10T22:26:35.436Z,10.90
2022-10-10T22:29:02.742Z,10.90
2022-10-10T22:31:30.280Z,10.90
2022-10-10T22:33:57.736Z,10.90
2022-10-10T22:36:24.732Z,10.90
2022-10-10T22:38:51.708Z,10.90
2022-10-10T22:41:18.787Z,10.90
2022-10-10T22:43:45.704Z,10.90
2022-10-10T22:46:13.342Z,10.80
2022-10-10T22:48:40.211Z,10.80
2022-10-10T22:51:11.549Z,10.90
2022-10-10T22:53:42.702Z,10.80
2022-10-10T22:56:11.123Z,10.80
2022-10-10T22:58:38.185Z,10.90
2022-10-10T23:01:11.460Z,10.90
2022-10-10T23:03:38.528Z,10.90
